37VA weather

St. Mary's Hospital Heliport
Richmond, Virginia, United States

Public forecast

Using degrees Fahrenheit for public forecast. Weather courtesy of forecast.io.

METAR (pilot weather report)

Closest report is Hanover County Municipal Airport, 8.9 nm (16.5 km) NNE. Retrieved 2019/01/17 15:54 UTC (58 minutes ago):

KOFP 171554Z AUTO 00000KT 10SM OVC041 03/M03 A3039 RMK AO2 SLP292 T00331033

TAF (pilot weather forecast)

Closest forecast is Richmond International Airport, 9.6 nm (17.7 km) ESE. Retrieved 2019/01/17 12:22 UTC (4 hours ago):

TAF KRIC 171120Z 1712/1812 00000KT P6SM BKN045 FM171400 05004KT P6SM BKN080 FM172200 13004KT P6SM OVC060 FM180200 16004KT 6SM -RA OVC060 FM180500 17005KT 6SM -RA OVC030 FM180700 20005KT P6SM OVC025